Blessed Life — WDH7043 — position and weather

sailwx.info

Track history (hours):
 
Tides and Currents Weather Stations Pressure Air Temp Water Temp Dewpoint Dewpoint Depression Visibility Wind Speed Wind Dir Waves Ship Positions

Blessed Life

Owner: Bahlman, Robert H, Incline Village, NV. More information available from US FCC via Universal Licensing System and Coast Guard Vessel Documentation Center.

Last reported at 2017-Nov-12 00:32 UTC. Time now 2017-Nov-24 00:21 UTC.
Position N 32°41' W 117°18'.
Warning: this ship's position is 11 days out of date.

Length 12 m.

Type: Sailing vessel. MMSI: 367423390.

Date/timePositionNaut miles runAvg speedWind from/ knotsBaromVisibWave heightAir tempDewpointWater temp
2017-Nov-12 00:32N 32°41' W 117°18'2 6.0
2017-Nov-12 00:11N 32°43' W 117°19'2 6.3
2017-Nov-11 23:54N 32°45' W 117°20'2 6.3
2017-Nov-11 23:30N 32°47' W 117°21'3 6.3
2017-Nov-11 23:00N 32°50' W 117°23'3 6.6
2017-Nov-11 22:30N 32°53' W 117°24'3 6.3
2017-Nov-11 22:00N 32°56' W 117°26'3 6.2
2017-Nov-11 21:30N 32°59' W 117°27'3 6.0
2017-Nov-11 21:00N 33°02' W 117°29'3 5.8
2017-Nov-11 20:30N 33°05' W 117°30'3 5.8
2017-Nov-11 20:00N 33°07' W 117°31'3 5.9
2017-Nov-11 19:30N 33°10' W 117°32'3 5.9
2017-Nov-11 19:00N 33°13' W 117°34'3 5.6
2017-Nov-11 18:30N 33°15' W 117°35'3 5.8
2017-Nov-11 18:00N 33°18' W 117°36'3 5.9
2017-Nov-11 17:29N 33°21' W 117°38'3 5.9
2017-Nov-11 17:00N 33°23' W 117°39'  
2017-Nov-08 13:57N 33°26' W 117°42'1 2.0
2017-Nov-08 13:29N 33°26' W 117°43'21 3.8
2017-Nov-08 07:54N 33°36' W 118°05'2 3.9
2017-Nov-08 07:30N 33°36' W 118°07'  
2017-Nov-04 13:56N 33°58' W 118°48'2 4.4
2017-Nov-04 13:30N 33°58' W 118°50'2 4.5
2017-Nov-04 13:00N 33°59' W 118°53'2 4.4
2017-Nov-04 12:30N 33°59' W 118°55'2 4.6
2017-Nov-04 12:00N 34°00' W 118°58'2 4.4
2017-Nov-04 11:30N 34°01' W 119°00'2 4.1
2017-Nov-04 11:00N 34°02' W 119°03'2 3.7
2017-Nov-04 10:30N 34°02' W 119°05'2 3.1
2017-Nov-04 10:00N 34°03' W 119°06'2 3.0
2017-Nov-04 09:30N 34°03' W 119°08'1 2.6
2017-Nov-04 09:00N 34°03' W 119°10'2 3.5
2017-Nov-04 08:30N 34°04' W 119°12'2 3.7
2017-Nov-04 08:00N 34°05' W 119°14'2 4.0
2017-Nov-04 07:30N 34°06' W 119°16'2 3.9
2017-Nov-04 06:55N 34°07' W 119°18'2 3.6
2017-Nov-04 06:26N 34°08' W 119°20'2 3.7
2017-Nov-04 05:56N 34°10' W 119°21'2 4.1
2017-Nov-04 05:27N 34°11' W 119°23'2 4.3
2017-Nov-04 04:59N 34°12' W 119°24'3 3.9
2017-Nov-04 04:12N 34°14' W 119°27'1 4.2
2017-Nov-04 04:00N 34°15' W 119°28'2 4.3
2017-Nov-04 03:26N 34°17' W 119°30'2 4.3
2017-Nov-04 02:56N 34°18' W 119°32'2 4.4
2017-Nov-04 02:29N 34°19' W 119°34'2 3.6
2017-Nov-04 01:59N 34°21' W 119°35'2 3.1
2017-Nov-04 01:24N 34°22' W 119°37'1 3.6
2017-Nov-04 01:00N 34°23' W 119°39'2 3.4
2017-Nov-04 00:30N 34°24' W 119°40'  
Track history (hours):
 
Tides and Currents Weather Stations Pressure Air Temp Water Temp Dewpoint Dewpoint Depression Visibility Wind Speed Wind Dir Waves Ship Positions

Blessed Life

Owner: Bahlman, Robert H, Incline Village, NV. More information available from US FCC via Universal Licensing System and Coast Guard Vessel Documentation Center.

Last reported at 2017-Nov-12 00:32 UTC. Time now 2017-Nov-24 00:21 UTC.
Position N 32°41' W 117°18'.
Warning: this ship's position is 11 days out of date.

Length 12 m.

Type: Sailing vessel. MMSI: 367423390.

Date/timePositionNaut miles runAvg speedWind from/ knotsBaromVisibWave heightAir tempDewpointWater temp
2017-Nov-12 00:32N 32°41' W 117°18'2 6.0
2017-Nov-12 00:11N 32°43' W 117°19'2 6.3
2017-Nov-11 23:54N 32°45' W 117°20'2 6.3
2017-Nov-11 23:30N 32°47' W 117°21'3 6.3
2017-Nov-11 23:00N 32°50' W 117°23'3 6.6
2017-Nov-11 22:30N 32°53' W 117°24'3 6.3
2017-Nov-11 22:00N 32°56' W 117°26'3 6.2
2017-Nov-11 21:30N 32°59' W 117°27'3 6.0
2017-Nov-11 21:00N 33°02' W 117°29'3 5.8
2017-Nov-11 20:30N 33°05' W 117°30'3 5.8
2017-Nov-11 20:00N 33°07' W 117°31'3 5.9
2017-Nov-11 19:30N 33°10' W 117°32'3 5.9
2017-Nov-11 19:00N 33°13' W 117°34'3 5.6
2017-Nov-11 18:30N 33°15' W 117°35'3 5.8
2017-Nov-11 18:00N 33°18' W 117°36'3 5.9
2017-Nov-11 17:29N 33°21' W 117°38'3 5.9
2017-Nov-11 17:00N 33°23' W 117°39'  
2017-Nov-08 13:57N 33°26' W 117°42'1 2.0
2017-Nov-08 13:29N 33°26' W 117°43'21 3.8
2017-Nov-08 07:54N 33°36' W 118°05'2 3.9
2017-Nov-08 07:30N 33°36' W 118°07'  
2017-Nov-04 13:56N 33°58' W 118°48'2 4.4
2017-Nov-04 13:30N 33°58' W 118°50'2 4.5
2017-Nov-04 13:00N 33°59' W 118°53'2 4.4
2017-Nov-04 12:30N 33°59' W 118°55'2 4.6
2017-Nov-04 12:00N 34°00' W 118°58'2 4.4
2017-Nov-04 11:30N 34°01' W 119°00'2 4.1
2017-Nov-04 11:00N 34°02' W 119°03'2 3.7
2017-Nov-04 10:30N 34°02' W 119°05'2 3.1
2017-Nov-04 10:00N 34°03' W 119°06'2 3.0
2017-Nov-04 09:30N 34°03' W 119°08'1 2.6
2017-Nov-04 09:00N 34°03' W 119°10'2 3.5
2017-Nov-04 08:30N 34°04' W 119°12'2 3.7
2017-Nov-04 08:00N 34°05' W 119°14'2 4.0
2017-Nov-04 07:30N 34°06' W 119°16'2 3.9
2017-Nov-04 06:55N 34°07' W 119°18'2 3.6
2017-Nov-04 06:26N 34°08' W 119°20'2 3.7
2017-Nov-04 05:56N 34°10' W 119°21'2 4.1
2017-Nov-04 05:27N 34°11' W 119°23'2 4.3
2017-Nov-04 04:59N 34°12' W 119°24'3 3.9
2017-Nov-04 04:12N 34°14' W 119°27'1 4.2
2017-Nov-04 04:00N 34°15' W 119°28'2 4.3
2017-Nov-04 03:26N 34°17' W 119°30'2 4.3
2017-Nov-04 02:56N 34°18' W 119°32'2 4.4
2017-Nov-04 02:29N 34°19' W 119°34'2 3.6
2017-Nov-04 01:59N 34°21' W 119°35'2 3.1
2017-Nov-04 01:24N 34°22' W 119°37'1 3.6
2017-Nov-04 01:00N 34°23' W 119°39'2 3.4
2017-Nov-04 00:30N 34°24' W 119°40'  

Dump ship's entire track history